Portada
METAR-TAF:

METAR-TAF

Aeroports :

Guilin, Xina

latitud: 25-20N, longitud: 110-18E, altitud: 166 m

Observació

L'informe es va fer fa 55 minuts, a les 11:00 UTC
Vent calma
Temperatura 23°C
Humitat 73%
Pressió 1016 hPa
Visibilitat: 6000 m
Escasses núvols a una alçada de 5600 ft

METAR: ZGKL 271100Z 00000MPS 6000 FEW056 23/18 Q1016 NOSIG

Hora: 19:55 (11:55 UTC)

Pronòstic

L'informe es va fer fa 2 hores i 52 minuts, a les 09:03 UTC
Pronòstic vàlid del 27 a les 12 UTC al 28 a les 12 UTC
Vent 6 kt del Sud
Visibilitat: 6000 m

TAF: ZGKL 270903Z 2712/2812 18003MPS 6000 NSC TX28/2807Z TN17/2722Z

Observacions i pronòstics meteorològics de més de 4000 aeroports (METAR i TAF).

Les estacions disponibles són els punts grocs i vermells al mapa.

Posi el ratolí al punt desitjat per veure el nom de l'estació.

Feu clic per veure les observacions i els pronòstics meteorològics.

Per canviar el mapa: feu clic els botons verds amb una creu de color negre per apropar; al botó verd amb un guió per allunyar la imatge; o en les fletxes verdes per a mapes adjacents.


METAR-TAF: